Time;durP1;ratioP1;P1;durP2;ratioP2;P2;SDS_P1;SDS_P2;PMS_P1;PMS_P2;Temp;Humidity;BMP_temperature;BMP_pressure;BME280_temperature;BME280_humidity;BME280_pressure;Samples;Min_cycle;Max_cycle;Signal;HPM_P1;HPM_P2
2023/03/23 00:02:06;;;;;;;39.03;19.32;;;;;;;6.41;82.27;100239.19;1662021;85;21208;-82
2023/03/23 00:05:14;;;;;;;31.77;17.90;;;;;;;6.29;82.25;100240.37;1663155;85;21720;-82
2023/03/23 00:08:25;;;;;;;46.85;17.92;;;;;;;6.20;82.55;100236.70;1662041;85;21204;-82
2023/03/23 00:11:30;;;;;;;39.90;19.10;;;;;;;6.20;82.76;100239.41;1663200;85;21239;-83
2023/03/23 00:14:44;;;;;;;40.33;20.62;;;;;;;6.21;83.47;100242.51;1663354;85;21216;-82
2023/03/23 00:17:43;;;;;;;39.63;19.95;;;;;;;6.24;83.69;100242.19;1646196;86;21245;-82
2023/03/23 00:20:48;;;;;;;38.63;19.00;;;;;;;6.32;83.86;100235.51;1621294;87;21793;-82
2023/03/23 00:23:53;;;;;;;35.05;19.40;;;;;;;6.39;83.70;100242.54;1606446;87;21271;-82
2023/03/23 00:27:00;;;;;;;38.33;22.93;;;;;;;6.35;83.64;100241.13;1622075;87;21252;-82
2023/03/23 00:30:06;;;;;;;102.05;40.70;;;;;;;6.34;83.64;100232.63;1621355;87;21247;-82
2023/03/23 00:33:12;;;;;;;100.07;40.43;;;;;;;6.36;83.68;100232.00;1621397;87;21799;-82
2023/03/23 00:36:23;;;;;;;86.10;40.78;;;;;;;6.41;83.26;100235.11;1621407;87;21315;-82
2023/03/23 00:39:26;;;;;;;51.33;28.67;;;;;;;6.38;83.35;100234.89;1622206;87;21216;-82
2023/03/23 00:42:36;;;;;;;48.60;25.57;;;;;;;6.36;83.58;100226.05;1621851;87;21794;-82
2023/03/23 00:45:39;;;;;;;40.90;20.70;;;;;;;6.51;83.15;100226.91;1622451;87;21275;-82
2023/03/23 00:48:45;;;;;;;39.90;20.60;;;;;;;6.47;83.37;100226.85;1621368;87;21224;-83
2023/03/23 00:51:50;;;;;;;37.00;19.30;;;;;;;6.51;83.47;100224.19;1621959;87;21556;-82
2023/03/23 00:54:56;;;;;;;33.67;20.00;;;;;;;6.54;83.22;100222.50;1622560;87;21271;-83
2023/03/23 00:58:01;;;;;;;47.50;20.48;;;;;;;6.56;82.68;100217.78;1622371;87;21220;-82
2023/03/23 01:01:06;;;;;;;35.50;20.15;;;;;;;6.44;82.88;100216.27;1622238;87;21236;-82
2023/03/23 01:04:12;;;;;;;48.38;20.88;;;;;;;6.43;83.34;100216.78;1621377;87;21247;-82
2023/03/23 01:07:19;;;;;;;36.65;19.15;;;;;;;6.47;83.02;100215.98;1622670;87;21787;-83
2023/03/23 01:10:32;;;;;;;35.43;21.20;;;;;;;6.42;83.33;100216.94;1622167;87;21869;-82
2023/03/23 01:13:36;;;;;;;;;;;;;;;6.37;83.56;100215.53;1623722;87;21311;-82
2023/03/23 01:16:41;;;;;;;41.28;20.45;;;;;;;6.45;83.36;100213.42;1623699;87;20229;-82
2023/03/23 01:19:46;;;;;;;30.68;19.65;;;;;;;6.41;83.48;100214.73;1663280;85;21212;-82
2023/03/23 01:22:52;;;;;;;37.75;18.95;;;;;;;6.40;83.52;100208.95;1662000;85;21228;-82
2023/03/23 01:26:00;;;;;;;36.03;19.45;;;;;;;6.38;83.95;100215.88;1662151;85;21215;-82
2023/03/23 01:29:05;;;;;;;33.65;19.45;;;;;;;6.40;83.89;100213.88;1662919;85;21862;-82
2023/03/23 01:32:10;;;;;;;38.33;20.52;;;;;;;6.27;84.37;100216.09;1618749;87;21284;-82
2023/03/23 01:35:16;;;;;;;35.35;21.42;;;;;;;6.31;84.44;100208.00;1619971;87;22231;-82
2023/03/23 01:38:22;;;;;;;34.33;18.55;;;;;;;6.28;84.62;100215.08;1619857;87;21768;-82
2023/03/23 01:41:28;;;;;;;35.03;19.85;;;;;;;6.34;84.49;100216.33;1619425;87;21244;-82
2023/03/23 01:44:43;;;;;;;33.60;19.23;;;;;;;6.35;84.19;100215.31;1620389;87;21225;-82
2023/03/23 01:47:50;;;;;;;37.23;19.92;;;;;;;6.36;84.18;100216.55;1619942;87;21236;-82
2023/03/23 01:51:05;;;;;;;42.33;21.42;;;;;;;6.39;84.16;100218.94;1618506;87;21763;-82
2023/03/23 01:54:19;;;;;;;35.78;21.12;;;;;;;6.47;83.97;100220.06;1619038;87;21232;-83
2023/03/23 01:57:26;;;;;;;39.27;18.75;;;;;;;6.31;84.17;100217.50;1598904;87;21316;-83
2023/03/23 02:00:31;;;;;;;37.23;20.60;;;;;;;6.31;83.84;100225.66;1618667;87;21796;-83
2023/03/23 02:03:38;;;;;;;35.00;19.77;;;;;;;6.23;84.30;100220.11;1619020;87;21273;-82
2023/03/23 02:06:44;;;;;;;27.22;18.52;;;;;;;6.26;83.97;100223.05;1619974;87;21232;-82
2023/03/23 02:09:51;;;;;;;34.58;20.95;;;;;;;6.37;83.33;100225.04;1620205;87;21224;-82
2023/03/23 02:12:57;;;;;;;38.40;21.10;;;;;;;5.92;85.14;100223.59;1618640;87;21300;-82
2023/03/23 02:16:06;;;;;;;34.48;19.95;;;;;;;5.72;85.82;100229.56;1619603;87;21273;-82
2023/03/23 02:19:40;;;;;;;41.83;22.00;;;;;;;5.69;86.17;100227.13;1603514;88;21262;-82
2023/03/23 02:22:56;;;;;;;39.25;23.05;;;;;;;5.69;86.43;100228.99;1596656;89;21249;-82
2023/03/23 02:26:27;;;;;;;41.83;23.83;;;;;;;5.62;86.74;100222.80;1596681;89;21317;-82
2023/03/23 02:29:49;;;;;;;40.78;22.58;;;;;;;5.57;87.45;100221.53;1596261;89;21676;-82
2023/03/23 02:33:16;;;;;;;46.53;21.82;;;;;;;5.61;87.46;100225.67;1595662;89;21805;-82
2023/03/23 02:36:29;;;;;;;38.15;21.10;;;;;;;5.58;87.60;100225.95;1596490;89;21214;-82
2023/03/23 02:39:42;;;;;;;37.95;23.10;;;;;;;5.60;87.93;100227.53;1596666;89;21210;-82
2023/03/23 02:42:50;;;;;;;37.80;21.05;;;;;;;5.71;88.00;100225.14;1596685;89;21230;-83
2023/03/23 02:45:55;;;;;;;39.83;23.40;;;;;;;5.79;88.09;100228.48;1596773;89;21218;-82
2023/03/23 02:49:00;;;;;;;43.33;23.62;;;;;;;5.80;88.21;100230.19;1596540;89;21785;-82
2023/03/23 02:52:06;;;;;;;43.52;22.67;;;;;;;5.83;88.06;100228.52;1596661;89;21210;-82
2023/03/23 02:55:14;;;;;;;37.30;22.48;;;;;;;5.83;88.13;100230.77;1596935;89;21255;-82
2023/03/23 02:58:18;;;;;;;40.05;24.07;;;;;;;5.87;88.23;100231.30;1595495;89;21218;-82
2023/03/23 03:01:41;;;;;;;43.28;24.55;;;;;;;6.01;87.58;100230.00;1596490;89;21214;-82
2023/03/23 03:04:46;;;;;;;40.45;23.80;;;;;;;5.95;87.34;100228.73;1595723;89;21246;-82
2023/03/23 03:08:21;;;;;;;42.33;23.50;;;;;;;6.05;86.79;100232.77;1596079;89;21812;-82
2023/03/23 03:11:27;;;;;;;39.90;23.95;;;;;;;5.80;87.24;100236.47;1596530;89;22645;-82
2023/03/23 03:14:46;;;;;;;41.20;27.10;;;;;;;5.66;87.92;100236.94;1595901;89;21234;-82
2023/03/23 03:17:54;;;;;;;39.78;25.25;;;;;;;5.64;87.81;100236.21;1596631;89;21199;-82
2023/03/23 03:21:02;;;;;;;45.20;24.55;;;;;;;5.51;88.12;100230.27;1604734;88;21870;-82
2023/03/23 03:24:11;;;;;;;40.70;23.50;;;;;;;5.54;87.84;100234.03;1604143;88;21234;-82
2023/03/23 03:27:25;;;;;;;53.28;25.37;;;;;;;5.58;88.15;100234.09;1604409;88;21225;-82
2023/03/23 03:30:37;;;;;;;44.10;25.97;;;;;;;5.48;88.52;100237.33;1604241;88;21249;-82
2023/03/23 03:33:44;;;;;;;56.60;27.22;;;;;;;5.47;88.41;100232.91;1602222;88;21268;-82
2023/03/23 03:36:50;;;;;;;44.77;27.70;;;;;;;5.52;88.19;100237.41;1586784;88;21229;-82
2023/03/23 03:39:57;;;;;;;46.42;28.87;;;;;;;5.55;87.96;100241.16;1603725;88;21221;-82
2023/03/23 03:43:02;;;;;;;46.60;28.45;;;;;;;5.44;88.22;100237.27;1605110;88;21205;-82
2023/03/23 03:46:08;;;;;;;58.85;30.90;;;;;;;5.48;88.20;100241.40;1604776;88;21221;-81
2023/03/23 03:49:15;;;;;;;59.65;32.28;;;;;;;5.44;88.42;100244.05;1604477;88;21201;-82
2023/03/23 03:52:22;;;;;;;55.10;31.05;;;;;;;5.35;89.10;100235.77;1604736;88;21253;-81
2023/03/23 03:55:27;;;;;;;54.53;32.25;;;;;;;5.41;89.51;100244.33;1603603;88;21245;-84
2023/03/23 03:58:31;;;;;;;62.20;34.45;;;;;;;5.43;89.67;100237.77;1604194;88;21245;-84
2023/03/23 04:01:28;;;;;;;70.30;35.88;;;;;;;5.48;89.91;100237.33;1602837;88;21249;-84
2023/03/23 04:04:33;;;;;;;61.37;34.38;;;;;;;5.56;90.12;100237.47;1604012;88;21225;-84
2023/03/23 04:07:39;;;;;;;56.88;34.50;;;;;;;5.61;90.17;100250.09;1604621;88;21202;-84
2023/03/23 04:10:43;;;;;;;57.73;34.90;;;;;;;5.64;90.15;100244.36;1603289;88;21229;-84
2023/03/23 04:13:49;;;;;;;64.05;33.65;;;;;;;5.76;89.72;100248.62;1605067;88;21282;-84
2023/03/23 04:16:56;;;;;;;59.95;35.05;;;;;;;5.78;89.47;100243.03;1604407;88;21222;-82
2023/03/23 04:20:06;;;;;;;61.40;36.15;;;;;;;5.71;89.74;100248.21;1605283;88;21257;-82
2023/03/23 04:23:10;;;;;;;66.55;37.10;;;;;;;5.69;89.94;100240.70;1605674;88;21213;-83
2023/03/23 04:26:16;;;;;;;61.58;35.55;;;;;;;5.78;89.91;100247.11;1604767;88;21840;-83
2023/03/23 04:29:24;;;;;;;69.42;37.00;;;;;;;5.92;89.50;100241.23;1604312;88;21272;-82
2023/03/23 04:32:50;;;;;;;54.67;34.80;;;;;;;6.03;89.44;100243.79;1607870;88;21248;-83
2023/03/23 04:35:56;;;;;;;55.20;35.40;;;;;;;6.14;89.28;100250.37;1603863;88;21376;-83
2023/03/23 04:39:06;;;;;;;58.33;36.53;;;;;;;6.25;89.04;100248.47;1605480;88;21221;-83
2023/03/23 04:42:03;;;;;;;54.80;33.90;;;;;;;6.32;88.72;100251.80;1603495;88;21240;-82
2023/03/23 04:45:02;;;;;;;66.85;36.40;;;;;;;6.35;88.76;100254.70;1603985;88;21213;-82
2023/03/23 04:47:52;;;;;;;54.75;35.55;;;;;;;6.46;88.45;100257.25;1603334;88;21222;-83
2023/03/23 04:50:43;;;;;;;64.42;36.55;;;;;;;6.57;88.08;100257.53;1603540;88;21936;-83
2023/03/23 04:53:52;;;;;;;61.73;37.48;;;;;;;6.67;87.88;100255.61;1605128;88;21788;-82
2023/03/23 04:56:59;;;;;;;55.28;34.15;;;;;;;6.74;87.64;100258.59;1604916;88;21239;-83
2023/03/23 05:00:08;;;;;;;52.53;33.73;;;;;;;6.86;87.23;100265.50;1603820;88;22390;-83
2023/03/23 05:03:18;;;;;;;54.73;34.33;;;;;;;6.88;87.36;100264.36;1605857;88;21217;-83
2023/03/23 05:06:24;;;;;;;59.20;35.00;;;;;;;7.07;86.87;100267.95;1603479;88;21228;-83
2023/03/23 05:09:32;;;;;;;46.63;29.32;;;;;;;7.24;86.23;100267.07;1605106;88;21214;-83
2023/03/23 05:12:37;;;;;;;51.77;32.65;;;;;;;7.37;85.86;100271.62;1603462;88;21222;-83
2023/03/23 05:15:44;;;;;;;54.25;30.97;;;;;;;7.44;85.28;100271.87;1603842;88;21234;-83
2023/03/23 05:18:52;;;;;;;50.03;29.85;;;;;;;7.54;85.12;100273.98;1603161;88;21289;-83
2023/03/23 05:22:02;;;;;;;50.23;31.75;;;;;;;7.63;84.79;100280.36;1598208;89;21298;-83
2023/03/23 05:25:11;;;;;;;55.80;32.35;;;;;;;7.70;85.04;100288.22;1596839;89;21270;-83
2023/03/23 05:28:18;;;;;;;55.17;33.20;;;;;;;7.79;84.83;100282.34;1595762;89;21278;-82
2023/03/23 05:31:26;;;;;;;58.73;34.18;;;;;;;7.92;84.65;100284.14;1596329;89;21536;-82
2023/03/23 05:34:32;;;;;;;61.63;35.92;;;;;;;8.05;84.35;100276.91;1596473;89;21796;-82
2023/03/23 05:37:38;;;;;;;59.48;35.28;;;;;;;8.24;83.69;100278.55;1595467;89;21226;-81
2023/03/23 05:40:30;;;;;;;56.90;34.08;;;;;;;8.29;83.19;100272.95;1595483;89;22487;-81
2023/03/23 05:43:38;;;;;;;53.40;32.55;;;;;;;8.43;82.62;100275.61;1597064;89;21230;-82
2023/03/23 05:46:46;;;;;;;55.98;31.52;;;;;;;8.60;82.36;100278.73;1595557;89;21234;-82
2023/03/23 05:49:51;;;;;;;54.67;32.70;;;;;;;8.70;82.25;100286.77;1595146;88;21290;-82
2023/03/23 05:52:57;;;;;;;51.00;30.95;;;;;;;8.91;81.62;100286.35;1593489;89;21214;-82
2023/03/23 05:56:06;;;;;;;48.55;30.35;;;;;;;8.94;81.88;100288.25;1591844;89;21892;-82
2023/03/23 05:59:17;;;;;;;54.13;29.50;;;;;;;9.23;80.37;100290.19;1561714;89;21254;-82
2023/03/23 06:02:23;;;;;;;53.10;30.00;;;;;;;9.43;79.13;100293.78;1576535;89;21298;-82
2023/03/23 06:05:30;;;;;;;50.78;29.12;;;;;;;9.56;78.32;100299.27;1568814;88;21197;-82
2023/03/23 06:08:36;;;;;;;58.73;26.23;;;;;;;9.74;77.61;100305.41;1649907;86;21197;-82
2023/03/23 06:11:44;;;;;;;55.30;25.68;;;;;;;9.90;77.30;100310.00;1626352;88;21229;-83
2023/03/23 06:14:55;;;;;;;53.25;24.95;;;;;;;10.07;76.24;100310.81;1614931;88;21289;-83
2023/03/23 06:18:13;;;;;;;43.90;23.73;;;;;;;10.20;74.28;100306.53;1523549;89;21242;-83
2023/03/23 06:21:32;;;;;;;45.83;24.25;;;;;;;10.35;74.22;100305.36;1632195;86;21263;-82
2023/03/23 06:24:40;;;;;;;53.10;25.00;;;;;;;10.47;73.77;100306.67;1667317;84;21324;-83
2023/03/23 06:27:47;;;;;;;54.95;25.68;;;;;;;10.67;72.75;100307.62;1652838;84;21205;-82
2023/03/23 06:30:52;;;;;;;53.90;25.65;;;;;;;10.81;72.05;100304.66;1618798;87;21217;-82
2023/03/23 06:33:58;;;;;;;55.80;25.02;;;;;;;11.04;71.55;100300.09;1612302;87;21209;-83
2023/03/23 06:37:20;;;;;;;39.10;23.45;;;;;;;11.13;71.00;100298.17;1640099;84;21257;-81
2023/03/23 06:40:36;;;;;;;45.48;25.48;;;;;;;11.11;71.18;100299.72;1662121;85;21921;-82
2023/03/23 06:43:40;;;;;;;54.58;25.55;;;;;;;11.32;70.81;100305.06;1672840;84;21261;-82
2023/03/23 06:46:49;;;;;;;63.60;25.62;;;;;;;11.36;69.92;100305.89;1668954;84;21202;-83
2023/03/23 06:49:56;;;;;;;50.43;25.23;;;;;;;11.39;70.72;100305.54;1669487;84;21174;-82
2023/03/23 06:53:01;;;;;;;43.90;23.00;;;;;;;11.51;70.95;100310.06;1637255;86;21212;-82
2023/03/23 06:56:06;;;;;;;50.95;23.87;;;;;;;11.72;71.13;100307.52;1668693;84;21361;-82
2023/03/23 06:59:12;;;;;;;52.03;24.70;;;;;;;11.91;68.77;100307.55;1658161;84;21194;-82
2023/03/23 07:02:21;;;;;;;45.38;24.67;;;;;;;12.00;68.32;100306.44;1662015;84;21226;-82
2023/03/23 07:05:26;;;;;;;58.87;28.32;;;;;;;12.01;66.92;100308.14;1669801;84;21206;-82
2023/03/23 07:08:31;;;;;;;54.85;27.93;;;;;;;12.13;66.84;100311.27;1636483;86;21769;-82
2023/03/23 07:11:38;;;;;;;55.88;26.37;;;;;;;12.45;66.52;100310.60;1650413;83;21217;-82
2023/03/23 07:14:53;;;;;;;53.52;26.65;;;;;;;12.49;66.14;100303.18;1670056;84;21813;-84
2023/03/23 07:17:58;;;;;;;51.48;25.80;;;;;;;12.56;66.31;100303.27;1665528;84;22756;-82
2023/03/23 07:21:11;;;;;;;56.73;26.12;;;;;;;12.72;65.38;100299.48;1642004;87;21204;-82
2023/03/23 07:24:20;;;;;;;53.17;26.57;;;;;;;12.88;64.38;100306.13;1645789;86;21249;-82
2023/03/23 07:27:37;;;;;;;54.98;25.82;;;;;;;12.93;63.82;100306.93;1631655;86;21264;-81
2023/03/23 07:30:42;;;;;;;50.48;24.43;;;;;;;13.03;64.21;100309.73;1669281;84;21852;-83
2023/03/23 07:33:48;;;;;;;63.23;28.07;;;;;;;13.09;63.13;100310.00;1663181;84;21339;-83
2023/03/23 07:36:56;;;;;;;64.82;25.80;;;;;;;13.22;62.76;100306.05;1668652;85;21254;-83
2023/03/23 07:40:14;;;;;;;57.88;26.07;;;;;;;13.35;61.62;100311.69;1668313;84;21295;-83
2023/03/23 07:43:11;;;;;;;52.33;23.32;;;;;;;13.46;61.33;100311.20;1643625;85;21272;-83
2023/03/23 07:46:34;;;;;;;54.73;25.88;;;;;;;13.62;59.44;100311.45;1666786;84;21289;-84
2023/03/23 07:49:41;;;;;;;47.75;24.50;;;;;;;13.58;58.54;100307.92;1652950;85;21197;-84
2023/03/23 07:52:50;;;;;;;43.30;21.45;;;;;;;13.63;58.38;100315.05;1659140;85;22558;-83
2023/03/23 07:56:03;;;;;;;43.20;20.77;;;;;;;13.69;57.77;100309.64;1651819;85;21201;-82
2023/03/23 07:59:11;;;;;;;44.38;20.37;;;;;;;13.98;57.64;100318.78;1627926;86;21264;-83
2023/03/23 08:02:17;;;;;;;56.95;22.00;;;;;;;14.05;56.36;100312.27;1668901;84;21170;-82
2023/03/23 08:05:29;;;;;;;49.15;22.17;;;;;;;14.16;55.78;100309.52;1669089;84;21195;-83
2023/03/23 08:08:40;;;;;;;49.05;20.70;;;;;;;14.36;55.60;100302.78;1663338;84;22497;-83
2023/03/23 08:11:48;;;;;;;55.17;22.50;;;;;;;14.35;54.89;100299.71;1657552;84;21207;-82
2023/03/23 08:14:56;;;;;;;39.25;20.08;;;;;;;14.58;54.23;100298.06;1647497;84;21206;-82
2023/03/23 08:18:18;;;;;;;47.60;22.25;;;;;;;14.53;54.17;100304.17;1667890;84;21832;-84
2023/03/23 08:21:26;;;;;;;48.05;21.75;;;;;;;14.49;53.61;100293.27;1625185;86;21257;-84
2023/03/23 08:24:48;;;;;;;55.23;24.02;;;;;;;14.58;52.80;100298.06;1663205;84;21230;-84
2023/03/23 08:27:55;;;;;;;51.90;22.95;;;;;;;14.68;52.99;100292.19;1589889;86;21789;-84
2023/03/23 08:31:07;;;;;;;42.60;19.27;;;;;;;14.60;53.27;100287.72;1612857;86;21259;-83
2023/03/23 08:34:07;;;;;;;46.18;21.75;;;;;;;14.67;53.36;100291.87;1648884;84;21195;-82
2023/03/23 08:37:06;;;;;;;59.75;21.60;;;;;;;14.70;52.26;100284.06;1659419;84;21308;-82
2023/03/23 08:40:23;;;;;;;42.27;19.45;;;;;;;15.03;51.83;100286.97;1665560;84;21183;-83
2023/03/23 08:43:46;;;;;;;46.88;18.07;;;;;;;14.86;51.15;100287.52;1566564;90;21253;-82
2023/03/23 08:47:10;;;;;;;42.10;18.30;;;;;;;14.85;51.30;100286.67;1835881;76;22238;-83
2023/03/23 08:50:35;;;;;;;37.13;16.60;;;;;;;14.87;50.24;100286.45;1791541;79;21259;-83
2023/03/23 08:53:40;;;;;;;43.70;17.73;;;;;;;14.81;50.77;100286.75;1792658;79;21245;-83
2023/03/23 08:56:53;;;;;;;40.90;20.05;;;;;;;14.88;49.93;100288.19;1774881;79;21271;-82
2023/03/23 09:00:14;;;;;;;32.15;16.40;;;;;;;14.91;49.71;100283.09;1781184;79;21204;-82
2023/03/23 09:03:30;;;;;;;39.53;18.07;;;;;;;14.91;50.80;100276.73;1735128;81;21220;-82
2023/03/23 09:06:56;;;;;;;43.48;20.48;;;;;;;14.99;50.55;100280.70;1772595;79;21188;-82
2023/03/23 09:10:02;;;;;;;45.52;20.48;;;;;;;15.09;50.42;100271.52;1757083;79;21182;-83
2023/03/23 09:13:07;;;;;;;44.23;19.70;;;;;;;15.12;50.37;100272.48;1762052;79;21208;-82
2023/03/23 09:16:13;;;;;;;43.63;17.48;;;;;;;15.08;50.33;100262.41;1785098;79;21223;-82
2023/03/23 09:19:20;;;;;;;51.25;20.02;;;;;;;15.13;50.40;100265.07;1762901;79;21917;-82
2023/03/23 09:22:26;;;;;;;37.10;18.85;;;;;;;15.19;51.16;100264.23;1771853;79;21194;-82
2023/03/23 09:25:33;;;;;;;47.60;19.45;;;;;;;15.40;50.88;100268.75;1778899;79;21180;-82
2023/03/23 09:28:38;;;;;;;37.10;19.45;;;;;;;15.27;50.08;100258.01;1768197;79;21177;-82
2023/03/23 09:31:46;;;;;;;47.38;17.52;;;;;;;15.31;50.28;100256.53;1771044;79;21228;-82
2023/03/23 09:34:55;;;;;;;42.53;18.67;;;;;;;15.33;50.53;100250.27;1791885;79;21312;-82
2023/03/23 09:38:00;;;;;;;36.77;19.05;;;;;;;15.39;50.46;100245.86;1788259;79;21185;-82
2023/03/23 09:41:25;;;;;;;53.15;20.92;;;;;;;15.49;50.18;100250.42;1770256;79;21162;-82
2023/03/23 09:44:38;;;;;;;33.95;14.98;;;;;;;15.54;50.69;100241.00;1798212;79;21201;-82
2023/03/23 09:48:15;;;;;;;42.85;17.30;;;;;;;15.63;49.48;100255.97;1773965;79;21200;-82
2023/03/23 09:51:37;;;;;;;35.73;17.35;;;;;;;15.66;48.99;100246.75;1775683;79;21777;-84
2023/03/23 09:54:51;;;;;;;38.13;18.25;;;;;;;15.69;49.28;100239.98;1740074;79;21475;-84
2023/03/23 09:58:07;;;;;;;38.13;18.15;;;;;;;15.73;48.84;100234.36;1774419;79;21160;-83
2023/03/23 10:01:36;;;;;;;42.58;16.52;;;;;;;15.76;49.33;100235.30;1787789;79;21171;-82
2023/03/23 10:04:58;;;;;;;39.83;19.07;;;;;;;15.76;49.15;100236.17;1754269;79;21143;-83
2023/03/23 10:08:03;;;;;;;42.17;16.25;;;;;;;15.78;48.87;100231.81;1763046;80;21192;-83
2023/03/23 10:11:18;;;;;;;37.63;17.42;;;;;;;15.84;48.59;100231.80;1799717;79;21172;-82
2023/03/23 10:14:33;;;;;;;37.88;15.45;;;;;;;15.94;48.59;100232.75;1786531;79;21129;-82
2023/03/23 10:17:43;;;;;;;27.25;13.72;;;;;;;15.95;47.04;100231.71;1767489;79;21179;-82
2023/03/23 10:21:03;;;;;;;37.55;15.15;;;;;;;15.99;47.26;100224.68;1776085;79;21227;-83
2023/03/23 10:24:13;;;;;;;28.47;12.60;;;;;;;16.05;46.41;100223.84;1759742;79;21437;-83
2023/03/23 10:27:48;;;;;;;30.82;13.58;;;;;;;16.09;46.83;100219.60;1760728;79;21173;-83
2023/03/23 10:31:03;;;;;;;26.68;13.43;;;;;;;16.17;46.00;100211.61;1755159;79;21185;-82
2023/03/23 10:34:26;;;;;;;26.93;10.88;;;;;;;16.27;44.61;100207.87;1774309;79;21225;-82
2023/03/23 10:37:47;;;;;;;30.10;13.55;;;;;;;16.29;44.98;100202.16;1770084;79;21161;-82
2023/03/23 10:40:57;;;;;;;24.25;13.25;;;;;;;16.37;45.22;100206.03;1774061;79;21229;-82
2023/03/23 10:44:04;;;;;;;28.27;14.18;;;;;;;16.32;45.86;100200.32;1788053;79;21180;-82
2023/03/23 10:47:17;;;;;;;30.27;11.97;;;;;;;16.41;45.99;100190.73;1775197;79;21168;-82
2023/03/23 10:50:26;;;;;;;34.92;12.70;;;;;;;16.53;45.40;100191.77;1769889;79;21161;-82
2023/03/23 10:53:47;;;;;;;32.93;14.10;;;;;;;16.58;45.24;100193.34;1777832;79;21168;-82
2023/03/23 10:56:52;;;;;;;35.40;14.23;;;;;;;16.73;45.88;100182.58;1771251;79;21215;-82
2023/03/23 10:59:56;;;;;;;34.58;14.18;;;;;;;16.84;44.58;100181.38;1765617;79;21160;-82
2023/03/23 11:03:28;;;;;;;30.20;12.93;;;;;;;16.63;44.18;100180.26;1778028;79;21152;-81
2023/03/23 11:06:39;;;;;;;35.58;13.80;;;;;;;16.52;44.95;100180.42;1777274;79;21129;-82
2023/03/23 11:09:45;;;;;;;25.97;13.13;;;;;;;16.63;45.24;100175.27;1777741;79;21232;-82
2023/03/23 11:12:46;;;;;;;37.10;13.98;;;;;;;16.54;45.74;100164.47;1774993;79;21343;-82
2023/03/23 11:15:52;;;;;;;23.77;14.45;;;;;;;16.54;45.78;100165.84;1779183;79;21188;-83
2023/03/23 11:18:57;;;;;;;35.90;14.95;;;;;;;16.59;45.80;100161.89;1778745;79;21188;-83
2023/03/23 11:22:14;;;;;;;38.65;14.45;;;;;;;16.61;45.36;100162.54;1751079;80;21840;-82
2023/03/23 11:25:20;;;;;;;27.87;12.78;;;;;;;16.78;45.17;100162.90;1762811;80;21213;-83
2023/03/23 11:28:27;;;;;;;28.52;13.40;;;;;;;16.72;44.92;100154.66;1775020;79;21743;-83
2023/03/23 11:31:38;;;;;;;37.80;14.28;;;;;;;16.73;44.42;100155.81;1783487;79;21148;-83
2023/03/23 11:34:50;;;;;;;37.40;13.40;;;;;;;16.97;44.04;100148.66;1780264;79;21152;-83
2023/03/23 11:37:57;;;;;;;27.10;12.28;;;;;;;17.02;44.08;100146.08;1769964;79;21176;-82
2023/03/23 11:41:04;;;;;;;34.27;13.35;;;;;;;17.24;43.66;100142.42;1769041;79;21161;-83
2023/03/23 11:44:13;;;;;;;34.88;12.90;;;;;;;17.32;44.22;100141.31;1759265;79;21133;-83
2023/03/23 11:47:45;;;;;;;38.57;13.50;;;;;;;17.32;43.94;100141.31;1767269;79;21745;-82
2023/03/23 11:51:12;;;;;;;48.38;11.85;;;;;;;17.52;43.07;100135.62;1730909;81;21144;-83
2023/03/23 11:54:48;;;;;;;42.30;12.73;;;;;;;17.60;42.24;100133.41;1717639;82;21195;-83
2023/03/23 11:57:53;;;;;;;33.28;13.55;;;;;;;17.77;42.95;100132.86;1732095;81;21137;-83
2023/03/23 12:01:08;;;;;;;32.60;12.53;;;;;;;17.71;41.75;100129.59;1718401;81;21725;-83
2023/03/23 12:04:51;;;;;;;39.98;13.58;;;;;;;17.77;42.55;100133.70;1739283;81;21165;-82
2023/03/23 12:08:16;;;;;;;28.70;12.05;;;;;;;17.67;42.38;100128.35;1715981;82;21214;-82
2023/03/23 12:11:59;;;;;;;31.77;13.50;;;;;;;17.72;42.68;100122.44;1716213;82;21162;-82
2023/03/23 12:15:36;;;;;;;32.65;13.60;;;;;;;17.94;41.94;100114.60;1741682;81;21189;-82
2023/03/23 12:19:07;;;;;;;31.25;13.28;;;;;;;18.13;41.58;100114.07;1673251;84;21188;-82
2023/03/23 12:22:23;;;;;;;31.37;13.30;;;;;;;18.09;42.13;100115.06;1720982;83;21299;-83
2023/03/23 12:25:32;;;;;;;31.05;13.20;;;;;;;17.95;42.41;100119.05;1685916;83;21755;-82
2023/03/23 12:28:58;;;;;;;30.20;12.28;;;;;;;18.07;42.46;100116.39;1688373;83;21205;-83
2023/03/23 12:32:24;;;;;;;29.30;11.68;;;;;;;17.87;42.21;100112.42;1675211;84;21182;-82
2023/03/23 12:35:43;;;;;;;33.70;12.58;;;;;;;17.64;42.96;100114.42;1680108;84;21190;-82
2023/03/23 12:39:12;;;;;;;32.87;12.50;;;;;;;17.55;43.14;100108.36;1660766;84;22226;-82
2023/03/23 12:42:41;;;;;;;29.75;12.33;;;;;;;17.52;43.83;100112.11;1662757;84;21224;-82
2023/03/23 12:46:00;;;;;;;28.05;11.55;;;;;;;17.53;43.32;100109.11;1675613;85;21199;-83
2023/03/23 12:49:18;;;;;;;26.70;12.60;;;;;;;17.37;43.90;100111.08;1676187;84;21162;-82
2023/03/23 12:52:41;;;;;;;32.50;13.15;;;;;;;17.28;43.79;100106.89;1668662;84;21160;-82
2023/03/23 12:55:55;;;;;;;29.20;13.38;;;;;;;17.02;43.68;100103.25;1701576;81;21212;-82
2023/03/23 12:59:08;;;;;;;34.85;12.88;;;;;;;16.87;43.92;100106.86;1680393;83;21749;-83
2023/03/23 13:02:23;;;;;;;25.68;12.15;;;;;;;16.78;44.38;100106.27;1693983;82;21196;-83
2023/03/23 13:05:29;;;;;;;35.13;12.23;;;;;;;16.71;44.65;100101.84;1699077;82;21260;-83
2023/03/23 13:08:48;;;;;;;42.73;13.85;;;;;;;16.64;44.87;100104.63;1695521;83;21771;-82
2023/03/23 13:11:53;;;;;;;32.20;15.18;;;;;;;16.61;44.58;100093.52;1677580;83;21216;-83
2023/03/23 13:15:20;;;;;;;31.05;13.85;;;;;;;16.56;44.67;100096.59;1715445;83;21207;-82
2023/03/23 13:19:05;;;;;;;42.80;14.47;;;;;;;16.49;45.03;100093.88;1693363;83;22485;-82
2023/03/23 13:22:23;;;;;;;28.67;12.88;;;;;;;16.50;45.17;100091.96;1706296;83;21790;-83
2023/03/23 13:25:43;;;;;;;25.40;11.45;;;;;;;16.68;44.69;100089.86;1675338;83;21145;-83
2023/03/23 13:29:04;;;;;;;26.02;11.25;;;;;;;16.57;44.30;100091.41;1706827;82;21255;-82
2023/03/23 13:32:22;;;;;;;34.03;12.78;;;;;;;16.58;44.24;100100.84;1686501;84;21204;-83
2023/03/23 13:35:27;;;;;;;36.42;12.55;;;;;;;16.64;44.47;100093.58;1679316;83;21216;-83
2023/03/23 13:38:35;;;;;;;34.13;13.60;;;;;;;16.66;44.69;100085.95;1691453;83;21739;-83
2023/03/23 13:41:40;;;;;;;37.25;12.43;;;;;;;16.70;44.05;100084.94;1708701;83;21729;-83
2023/03/23 13:45:02;;;;;;;38.55;12.28;;;;;;;16.62;44.04;100086.07;1706174;83;21189;-83
2023/03/23 13:48:23;;;;;;;32.45;12.13;;;;;;;16.70;44.46;100084.94;1693241;83;22139;-83
2023/03/23 13:51:40;;;;;;;32.50;13.08;;;;;;;16.74;43.70;100085.69;1682472;83;21210;-83
2023/03/23 13:54:51;;;;;;;34.27;12.75;;;;;;;16.73;43.71;100077.64;1690682;83;21832;-82
2023/03/23 13:58:13;;;;;;;39.53;13.65;;;;;;;16.67;44.27;100080.73;1708751;83;21213;-82
2023/03/23 14:01:24;;;;;;;33.10;12.40;;;;;;;16.72;44.41;100081.47;1679184;85;22177;-83
2023/03/23 14:04:32;;;;;;;26.25;12.43;;;;;;;16.69;44.50;100083.25;1646026;86;21227;-83
2023/03/23 14:07:31;;;;;;;39.48;13.80;;;;;;;16.66;44.90;100083.72;1650972;85;21264;-82
2023/03/23 14:10:25;;;;;;;33.58;13.55;;;;;;;16.65;45.00;100080.63;1654978;85;21267;-82
2023/03/23 14:14:06;;;;;;;29.37;12.33;;;;;;;16.51;45.24;100080.69;1676321;84;21165;-83
2023/03/23 14:17:21;;;;;;;;;;;;;;;16.52;45.34;100076.05;1671054;84;21218;-83
2023/03/23 14:20:39;;;;;;;28.87;12.58;;;;;;;16.40;45.41;100072.27;1688057;84;21075;-83
2023/03/23 14:23:47;;;;;;;33.50;12.78;;;;;;;16.29;45.66;100071.91;1655126;85;21213;-83
2023/03/23 14:26:52;;;;;;;30.52;13.78;;;;;;;16.23;45.87;100075.55;1695561;84;21174;-82
2023/03/23 14:30:10;;;;;;;33.75;15.63;;;;;;;16.07;46.58;100073.27;1694188;83;21208;-82
2023/03/23 14:33:17;;;;;;;39.60;19.98;;;;;;;16.02;47.02;100078.59;1697436;84;21198;-83
2023/03/23 14:36:35;;;;;;;38.88;16.70;;;;;;;15.96;47.50;100071.19;1694428;83;21216;-82